Eastville, Virginia
Current Conditions -  °F | °C
As of 3:35 AM on Saturday 29 Nov 2014 (Local Time) from KMFV Reporting Station
Broken Clouds Broken Clouds  
Wind Chill: 28°   Ceiling: 12000
Heat Index: 28°   Visibility: 10mi
Dew Point: 25°   Wind: 3mph
Humidity: 86%   Direction: 70°ENE
Pressure: 30.32"   Gusts: NA
Location:  37.35°N, 75.95°W
Report Text: KMFV 290835Z AUTO 07003KT 10SM BKN120 M02/M04 A3032 RMK AO2
Loading
Personal Weather Stations






























Interactive Weather Map New forecast layout! Learn more

10-Day Weather Forecast

Advertisements
Track Severe Weather on mobile